Arnot, Pennsylvania
Current Conditions -  °F | °C
As of 12:15 PM on Sunday 21 Dec 2014 (Local Time) from KN38 Reporting Station
Overcast Overcast  
Wind Chill: -3°   Ceiling: 1000
Heat Index: -3°   Visibility: 10mi
Dew Point: -5°   Wind: 3mph
Humidity: 86%   Direction: 360°N
Pressure: 30.25"   Gusts: NA
Location:  41.66°N, 77.12°W
Report Text: KN38 211715Z AUTO 36003KT 10SM OVC010 M03/M05 A3025 RMK AO2
Loading
Personal Weather Stations






























Interactive Weather Map New forecast layout! Learn more

10-Day Weather Forecast

Advertisements
Track Severe Weather on mobile